M I D A S
Marine Information and Data Acquisition System
Tripno 1229 of the Zeeleeuw from 2007-03-12 08:05:23 to 2007-03-12 13:45:51
Back to CruiseResearch ActivitiesStationsMapUnderway DataData graphs

EquipmentUnitsComment
TimeDGPSUTC
LatitudeDGPSDM.mWGS84
LongitudeDGPSDM.mWGS84
HeadingGyrodeg 
SOGDGPSknotsSpeed over ground
COGDGPSdegCourse over ground
DepthEcho soundermeters200 kHz
Missing or incorrect values are displayed as -999
Navigation data collected by the RV Zeeleeuw from 2007-03-12 07:47:02 to 2007-03-12 13:55:59
                                                                                    Next 1000 lines
Time Latitude Longitude Heading SOG COG Depth
2007-03-12 07:47:11 51°13.597 2°56.094 128.3 0.2 259 7.7
2007-03-12 07:47:17 51°13.597 2°56.094 129 0.1 271 7.8
2007-03-12 07:47:21 51°13.597 2°56.094 129.9 0.1 242 8.1
2007-03-12 07:47:26 51°13.597 2°56.094 130.5 0.1 216 7.9
2007-03-12 07:47:31 51°13.597 2°56.094 130.8 -999 136 8.2
2007-03-12 07:47:36 51°13.597 2°56.094 131.2 0.1 133 8.1
2007-03-12 07:47:41 51°13.597 2°56.094 131.3 0.1 96 7.9
2007-03-12 07:47:46 51°13.597 2°56.094 131.3 0.1 91 7.9
2007-03-12 07:47:51 51°13.597 2°56.095 131.3 0.1 81 7.8
2007-03-12 07:47:56 51°13.597 2°56.095 130.8 0.1 78 7.8
2007-03-12 07:48:01 51°13.597 2°56.095 129.6 0.1 72 7.8
2007-03-12 07:48:06 51°13.597 2°56.096 127.9 0.1 74 7.7
2007-03-12 07:48:11 51°13.597 2°56.096 126.2 -999 57 7.6
2007-03-12 07:48:16 51°13.597 2°56.096 124.6 -999 24 7.6
2007-03-12 07:48:21 51°13.597 2°56.096 123.2 -999 9 7.6
2007-03-12 07:48:26 51°13.597 2°56.096 122 -999 289 7.6
2007-03-12 07:48:32 51°13.597 2°56.096 120.6 -999 255 -999
2007-03-12 07:48:37 51°13.597 2°56.096 119.7 0.1 220 7.9
2007-03-12 07:48:42 51°13.597 2°56.096 119.1 -999 213 7.6
2007-03-12 07:48:47 51°13.597 2°56.096 118.4 -999 176 -999
2007-03-12 07:48:52 51°13.597 2°56.096 117.5 0.1 185 -999
2007-03-12 07:48:57 51°13.597 2°56.095 117 -999 186 -999
2007-03-12 07:49:02 51°13.597 2°56.095 116.5 -999 179 7.6
2007-03-12 07:49:07 51°13.597 2°56.095 115.9 0.1 189 7.6
2007-03-12 07:49:12 51°13.597 2°56.095 115.5 -999 175 7.6
2007-03-12 07:49:17 51°13.597 2°56.095 114.9 -999 199 7.7
2007-03-12 07:49:22 51°13.597 2°56.095 114.3 -999 200 7.7
2007-03-12 07:49:27 51°13.597 2°56.095 113.8 0.1 241 7.7
2007-03-12 07:49:31 51°13.597 2°56.095 113.2 0.1 293 7.7
2007-03-12 07:49:37 51°13.597 2°56.095 112.9 0.2 293 7.6
2007-03-12 07:49:42 51°13.597 2°56.094 112.7 0.4 300 7.6
2007-03-12 07:49:46 51°13.597 2°56.093 112.7 0.6 290 7.8
2007-03-12 07:49:51 51°13.598 2°56.091 113 0.7 295 7.7
2007-03-12 07:49:56 51°13.598 2°56.09 113.2 0.9 295 7.9
2007-03-12 07:50:01 51°13.599 2°56.088 113.4 1.1 298 7.9
2007-03-12 07:50:06 51°13.6 2°56.085 113.6 1.3 293 8.2
2007-03-12 07:50:11 51°13.601 2°56.082 113.6 1.6 294 8
2007-03-12 07:50:16 51°13.602 2°56.078 113.2 1.8 294 8.4
2007-03-12 07:50:22 51°13.603 2°56.073 112.9 2.1 294 -999
2007-03-12 07:50:27 51°13.604 2°56.069 112.4 2.4 290 -999
2007-03-12 07:50:32 51°13.605 2°56.063 111.9 2.6 291 -999
2007-03-12 07:50:37 51°13.607 2°56.057 111.7 2.9 288 -999
2007-03-12 07:50:42 51°13.608 2°56.051 111.5 3 290 -999
2007-03-12 07:50:47 51°13.61 2°56.044 111.6 3.2 290 -999
2007-03-12 07:50:52 51°13.612 2°56.037 111.7 3.3 291 -999
2007-03-12 07:50:57 51°13.613 2°56.031 112.1 3.4 291 -999
2007-03-12 07:51:02 51°13.615 2°56.024 112.4 3.5 292 -999
2007-03-12 07:51:07 51°13.617 2°56.016 112.6 3.5 292 -999
2007-03-12 07:51:12 51°13.619 2°56.009 113 3.5 292 -999
2007-03-12 07:51:17 51°13.621 2°56.002 113.3 3.5 293 -999
2007-03-12 07:51:22 51°13.622 2°55.995 113.6 3.5 294 -999
2007-03-12 07:51:27 51°13.624 2°55.988 113.8 3.5 293 -999
2007-03-12 07:51:32 51°13.626 2°55.98 113.9 3.6 293 -999
2007-03-12 07:51:37 51°13.628 2°55.973 114.2 3.6 294 -999
2007-03-12 07:51:42 51°13.63 2°55.965 114.4 3.6 293 -999
2007-03-12 07:51:47 51°13.632 2°55.958 114.5 3.6 294 -999
2007-03-12 07:51:52 51°13.634 2°55.951 114.6 3.6 294 -999
2007-03-12 07:51:58 51°13.636 2°55.942 114.9 3.6 294 -999
2007-03-12 07:52:02 51°13.638 2°55.936 115.2 3.6 294 -999
2007-03-12 07:52:07 51°13.64 2°55.929 115.4 3.6 295 -999
2007-03-12 07:52:12 51°13.643 2°55.922 115.4 3.6 295 -999
2007-03-12 07:52:17 51°13.645 2°55.914 115.4 3.6 295 -999
2007-03-12 07:52:22 51°13.647 2°55.907 115.4 3.5 296 -999
2007-03-12 07:52:27 51°13.649 2°55.9 115.4 3.5 296 4.9
2007-03-12 07:52:32 51°13.651 2°55.893 115.4 3.5 296 -999
2007-03-12 07:52:37 51°13.653 2°55.886 115.3 3.5 295 -999
2007-03-12 07:52:42 51°13.655 2°55.879 114.9 3.5 295 4.5
2007-03-12 07:52:47 51°13.657 2°55.872 114.5 3.4 295 4.9
2007-03-12 07:52:52 51°13.659 2°55.866 114 3.4 293 -999
2007-03-12 07:52:57 51°13.661 2°55.859 113.4 3.3 292 -999
2007-03-12 07:53:02 51°13.662 2°55.852 112.9 3.3 292 4.7
2007-03-12 07:53:07 51°13.664 2°55.845 112 3.3 292 10.4
2007-03-12 07:53:12 51°13.666 2°55.838 111.3 3.4 290 10.3
2007-03-12 07:53:17 51°13.668 2°55.831 110.1 3.4 289 -999
2007-03-12 07:53:22 51°13.669 2°55.824 108.8 3.3 288 10.3
2007-03-12 07:53:27 51°13.67 2°55.818 107.4 3.2 285 10.2
2007-03-12 07:53:32 51°13.671 2°55.811 105.7 3.2 284 -999
2007-03-12 07:53:37 51°13.672 2°55.804 103.5 3.2 281 -999
2007-03-12 07:53:42 51°13.673 2°55.797 102 3.1 280 10.3
2007-03-12 07:53:47 51°13.673 2°55.79 100.8 3 278 4.6
2007-03-12 07:53:52 51°13.674 2°55.784 99.6 2.9 277 10.4
2007-03-12 07:53:57 51°13.674 2°55.778 98.1 2.9 276 10.2
2007-03-12 07:54:02 51°13.674 2°55.772 97 2.8 275 10.6
2007-03-12 07:54:07 51°13.675 2°55.766 96.2 2.7 274 10.3
2007-03-12 07:54:11 51°13.675 2°55.761 95.7 2.4 275 10.5
2007-03-12 07:54:16 51°13.675 2°55.757 95.2 1.9 274 10.4
2007-03-12 07:54:21 51°13.675 2°55.754 93.8 1.3 276 10.1
2007-03-12 07:54:26 51°13.676 2°55.752 91.4 0.9 283 10
2007-03-12 07:54:31 51°13.676 2°55.751 89 0.5 294 10.1
2007-03-12 07:54:36 51°13.676 2°55.751 84.8 0.3 352 10.2
2007-03-12 07:54:41 51°13.677 2°55.751 80.7 0.6 37 10.4
2007-03-12 07:54:46 51°13.678 2°55.753 75.8 1 45 10.7
2007-03-12 07:54:51 51°13.679 2°55.755 70.1 1.3 45 11.3
2007-03-12 07:54:56 51°13.68 2°55.757 64.3 1.6 42 11.6
2007-03-12 07:55:00 51°13.682 2°55.759 58.2 1.9 38 11.1
2007-03-12 07:55:06 51°13.685 2°55.762 52.2 2 32 12.3
2007-03-12 07:55:10 51°13.687 2°55.764 46.1 1.7 28 12.6
2007-03-12 07:55:15 51°13.69 2°55.766 40.7 1.8 22 12.6
2007-03-12 07:55:20 51°13.693 2°55.767 35.5 2.4 18 12.7
2007-03-12 07:55:25 51°13.696 2°55.769 31.2 2.4 12 13.8
2007-03-12 07:55:30 51°13.699 2°55.769 24.6 2.3 5 13.8
2007-03-12 07:55:32 51°13.701 2°55.769 19.2 0.8 359 14.1
2007-03-12 07:55:39 51°13.704 2°55.769 15.2 1.2 355 14.5
2007-03-12 07:55:45 51°13.707 2°55.768 12.1 1.4 344 14.3
2007-03-12 07:55:50 51°13.708 2°55.767 7.6 1.1 337 14.1
2007-03-12 07:55:55 51°13.709 2°55.765 2.1 0.7 319 14
2007-03-12 07:56:00 51°13.709 2°55.764 358.4 0.5 302 14
2007-03-12 07:56:05 51°13.709 2°55.763 355.5 0.4 244 14.1
2007-03-12 07:56:10 51°13.709 2°55.763 353.2 0.6 205 14.2
2007-03-12 07:56:15 51°13.708 2°55.762 351.6 0.7 205 14.2
2007-03-12 07:56:20 51°13.707 2°55.762 349.4 0.5 203 14.3
2007-03-12 07:56:25 51°13.707 2°55.761 348.3 0.5 235 14.5
2007-03-12 07:56:30 51°13.707 2°55.76 347.4 0.4 270 14.4
2007-03-12 07:56:35 51°13.707 2°55.759 346.2 0.7 297 5
2007-03-12 07:56:40 51°13.708 2°55.757 344 0.9 318 14.3
2007-03-12 07:56:45 51°13.709 2°55.755 340.9 1.4 321 14.3
2007-03-12 07:56:50 51°13.711 2°55.753 338.1 1.9 324 13.8
2007-03-12 07:56:55 51°13.714 2°55.75 335.3 2.4 324 13.9
2007-03-12 07:57:00 51°13.718 2°55.746 333.7 3 325 13.6
2007-03-12 07:57:05 51°13.722 2°55.742 332.7 3.5 326 13.1
2007-03-12 07:57:09 51°13.725 2°55.739 332.4 3.8 327 12.4
2007-03-12 07:57:14 51°13.73 2°55.734 332.2 4.2 327 12.1
2007-03-12 07:57:19 51°13.735 2°55.729 332.1 4.4 328 11.5
2007-03-12 07:57:24 51°13.74 2°55.724 332.7 4.7 329 11.1
2007-03-12 07:57:29 51°13.746 2°55.718 332.9 4.9 330 11.6
2007-03-12 07:57:34 51°13.752 2°55.712 332.7 5.2 330 11.6
2007-03-12 07:57:39 51°13.759 2°55.706 332.5 5.4 331 11.5
2007-03-12 07:57:44 51°13.765 2°55.7 332.5 5.6 330 11.1
2007-03-12 07:57:49 51°13.772 2°55.693 332.7 5.7 329 10.8
2007-03-12 07:57:54 51°13.779 2°55.686 331.9 5.9 328 10.7
2007-03-12 07:57:59 51°13.786 2°55.68 331.4 6 329 10.8
2007-03-12 07:58:03 51°13.792 2°55.674 331.4 6.1 329 10.9
2007-03-12 07:58:08 51°13.8 2°55.667 332.4 6.2 330 11.1
2007-03-12 07:58:14 51°13.809 2°55.659 333.5 6.3 330 11.2
2007-03-12 07:58:19 51°13.816 2°55.652 333.9 5.3 330 11.5
2007-03-12 07:58:24 51°13.824 2°55.645 334.1 6.6 330 11.6
2007-03-12 07:58:28 51°13.831 2°55.639 334.4 6.7 331 11.6
2007-03-12 07:58:34 51°13.841 2°55.631 335.5 6.7 332 11.6
2007-03-12 07:58:39 51°13.849 2°55.624 336.9 6.9 334 11.4
2007-03-12 07:58:44 51°13.858 2°55.617 337.9 6.9 334 11.6
2007-03-12 07:58:48 51°13.865 2°55.612 338.2 7 334 11.4
2007-03-12 07:58:54 51°13.875 2°55.604 338.9 7.1 335 11.4
2007-03-12 07:58:59 51°13.884 2°55.597 339.4 7.1 335 11.4
2007-03-12 07:59:04 51°13.893 2°55.59 339.3 7.2 334 11.6
2007-03-12 07:59:09 51°13.903 2°55.583 339.2 7.2 335 -999
2007-03-12 07:59:14 51°13.912 2°55.576 339.2 7.3 335 11.6
2007-03-12 07:59:19 51°13.921 2°55.57 339.3 7.3 335 11.7
2007-03-12 07:59:24 51°13.93 2°55.563 339.8 7.3 336 11.6
2007-03-12 07:59:28 51°13.938 2°55.558 340.1 7.3 335 11.6
2007-03-12 07:59:34 51°13.949 2°55.549 339.6 7.3 335 11.6
2007-03-12 07:59:39 51°13.958 2°55.542 338.6 7.4 334 11.6
2007-03-12 07:59:44 51°13.967 2°55.536 338.3 7.4 336 11.6
2007-03-12 07:59:49 51°13.976 2°55.529 338.9 7.4 335 11.6
2007-03-12 07:59:54 51°13.986 2°55.522 338.9 7.4 336 11.6
2007-03-12 07:59:59 51°13.995 2°55.515 339 7.4 336 11.6
2007-03-12 08:00:04 51°14.004 2°55.509 339.3 7.4 337 11.6
2007-03-12 08:00:09 51°14.014 2°55.502 339.6 7.4 336 11.6
2007-03-12 08:00:14 51°14.023 2°55.496 339.7 7.4 336 11.6
2007-03-12 08:00:19 51°14.032 2°55.489 339.8 7.4 336 11.6
2007-03-12 08:00:23 51°14.04 2°55.484 339.6 7.4 336 11.6
2007-03-12 08:00:28 51°14.049 2°55.477 339.6 7.4 336 11.6
2007-03-12 08:00:34 51°14.06 2°55.469 339.7 7.4 335 11.7
2007-03-12 08:00:39 51°14.07 2°55.462 339.6 7.4 335 11.7
2007-03-12 08:00:44 51°14.079 2°55.455 339.4 7.4 334 11.7
2007-03-12 08:00:48 51°14.086 2°55.449 339 7.4 334 11.7
2007-03-12 08:00:54 51°14.097 2°55.44 338.7 7.3 334 11.7
2007-03-12 08:00:59 51°14.106 2°55.434 338.6 7.4 334 11.7
2007-03-12 08:01:04 51°14.115 2°55.427 338.9 7.3 335 11.7
2007-03-12 08:01:08 51°14.123 2°55.421 339 7.3 334 11.8
2007-03-12 08:01:14 51°14.133 2°55.412 338.2 7.3 333 11.7
2007-03-12 08:01:19 51°14.142 2°55.404 336.7 7.3 331 11.8
2007-03-12 08:01:24 51°14.151 2°55.396 335.6 7.3 331 11.9
2007-03-12 08:01:29 51°14.16 2°55.388 335.1 7.3 330 11.9
2007-03-12 08:01:34 51°14.169 2°55.38 334.6 7.4 330 11.9
2007-03-12 08:01:39 51°14.178 2°55.371 334 7.5 329 12
2007-03-12 08:01:44 51°14.187 2°55.363 333 7.5 328 12
2007-03-12 08:01:48 51°14.194 2°55.355 331.3 7.7 326 11.9
2007-03-12 08:01:54 51°14.205 2°55.343 329.9 7.9 325 12.1
2007-03-12 08:01:59 51°14.214 2°55.332 328.9 8.1 323 12.1
2007-03-12 08:02:03 51°14.221 2°55.323 327.9 8.3 322 12.1
2007-03-12 08:02:09 51°14.232 2°55.309 326 8.5 320 12.1
2007-03-12 08:02:14 51°14.241 2°55.296 324.1 8.7 318 12.1
2007-03-12 08:02:19 51°14.25 2°55.283 322.9 8.8 317 12.1
2007-03-12 08:02:24 51°14.258 2°55.269 321.5 8.9 315 12.1
2007-03-12 08:02:29 51°14.267 2°55.254 319.3 9.1 313 12
2007-03-12 08:02:34 51°14.275 2°55.239 317.2 9.2 312 12.2
2007-03-12 08:02:39 51°14.284 2°55.224 316.4 9.4 312 12
2007-03-12 08:02:43 51°14.291 2°55.211 316.1 9.4 311 12
2007-03-12 08:02:48 51°14.3 2°55.195 315.4 9.5 310 12
2007-03-12 08:02:54 51°14.31 2°55.175 314.5 9.6 309 12
2007-03-12 08:02:59 51°14.318 2°55.159 313.7 9.8 309 11.8
2007-03-12 08:03:04 51°14.327 2°55.141 313.6 10.1 309 11.9
2007-03-12 08:03:09 51°14.336 2°55.123 313.5 10.3 309 12
2007-03-12 08:03:14 51°14.345 2°55.105 313.5 10.5 309 11.6
2007-03-12 08:03:19 51°14.354 2°55.087 313.5 10.7 309 11.2
2007-03-12 08:03:23 51°14.362 2°55.072 313.5 10.8 308 11.2
2007-03-12 08:03:29 51°14.373 2°55.049 312.5 11 306 11.1
2007-03-12 08:03:34 51°14.381 2°55.028 310.8 11.1 304 11.1
2007-03-12 08:03:39 51°14.389 2°55.007 308.6 11.3 302 11
2007-03-12 08:03:44 51°14.397 2°54.985 306.2 11.5 299 11
2007-03-12 08:03:49 51°14.404 2°54.962 304.1 11.7 298 11.2
2007-03-12 08:03:54 51°14.411 2°54.939 302.5 11.9 296 11.4
2007-03-12 08:03:59 51°14.418 2°54.915 301.2 12 295 11.6
2007-03-12 08:04:04 51°14.425 2°54.89 299.4 12.2 293 11.5
2007-03-12 08:04:09 51°14.431 2°54.864 297.5 12.3 291 11.5
2007-03-12 08:04:14 51°14.436 2°54.839 295.1 12.4 288 11.2
2007-03-12 08:04:19 51°14.441 2°54.812 292.5 12.5 286 11.2
2007-03-12 08:04:24 51°14.445 2°54.785 289.8 12.6 283 11.3
2007-03-12 08:04:29 51°14.448 2°54.757 286.9 12.7 280 11.3
2007-03-12 08:04:34 51°14.45 2°54.729 283.8 12.8 277 11.1
2007-03-12 08:04:39 51°14.452 2°54.701 280.6 12.9 274 11.7
2007-03-12 08:04:44 51°14.452 2°54.673 277.2 12.9 271 11.5
2007-03-12 08:04:49 51°14.451 2°54.644 274 12.9 268 11.2
2007-03-12 08:04:54 51°14.449 2°54.615 270.7 13 264 11.5
2007-03-12 08:04:59 51°14.446 2°54.586 267 13.1 261 11.4
2007-03-12 08:05:04 51°14.442 2°54.558 263.5 13.2 257 11.8
2007-03-12 08:05:08 51°14.438 2°54.535 260 13.3 254 11.5
2007-03-12 08:05:14 51°14.432 2°54.501 256.9 13.3 252 11.6
2007-03-12 08:05:19 51°14.425 2°54.474 254 13.4 249 11.1
2007-03-12 08:05:24 51°14.417 2°54.447 251.1 13.5 246 10.7
2007-03-12 08:05:28 51°14.411 2°54.425 248.8 13.5 246 10.2
2007-03-12 08:05:34 51°14.402 2°54.392 248 13.5 245 10.1
2007-03-12 08:05:39 51°14.394 2°54.366 247.6 13.4 245 10
2007-03-12 08:05:44 51°14.386 2°54.339 247.2 13.5 244 9.9
2007-03-12 08:05:48 51°14.379 2°54.317 246.7 13.5 245 9.9
2007-03-12 08:05:54 51°14.369 2°54.285 246.2 13.6 243 9.9
2007-03-12 08:05:59 51°14.361 2°54.258 245.6 13.7 243 9.8
2007-03-12 08:06:04 51°14.352 2°54.231 245.1 13.6 242 9.8
2007-03-12 08:06:09 51°14.343 2°54.205 244.5 13.6 241 9.7
2007-03-12 08:06:14 51°14.333 2°54.179 243.4 13.6 240 9.7
2007-03-12 08:06:19 51°14.324 2°54.153 243 13.6 240 9.7
2007-03-12 08:06:24 51°14.314 2°54.127 242.6 13.6 240 9.8
2007-03-12 08:06:29 51°14.305 2°54.101 242.3 13.6 240 9.7
2007-03-12 08:06:34 51°14.295 2°54.075 242.3 13.6 240 9.7
2007-03-12 08:06:38 51°14.288 2°54.054 242.5 13.6 240 9.7
2007-03-12 08:06:44 51°14.277 2°54.023 242.8 13.6 240 9.8
2007-03-12 08:06:49 51°14.267 2°53.997 242.8 13.6 241 9.7
2007-03-12 08:06:54 51°14.258 2°53.97 242.9 13.6 240 9.7
2007-03-12 08:06:59 51°14.249 2°53.944 243.1 13.6 241 9.8
2007-03-12 08:07:03 51°14.241 2°53.923 243.1 13.6 240 9.7
2007-03-12 08:07:09 51°14.23 2°53.892 243.2 13.6 241 9.7
2007-03-12 08:07:14 51°14.221 2°53.866 243.2 13.6 241 9.7
2007-03-12 08:07:19 51°14.212 2°53.84 243.3 13.6 241 9.7
2007-03-12 08:07:24 51°14.202 2°53.813 243.3 13.6 241 9.7
2007-03-12 08:07:28 51°14.195 2°53.792 243.3 13.6 241 9.7
2007-03-12 08:07:34 51°14.184 2°53.761 243.3 13.6 240 9.7
2007-03-12 08:07:39 51°14.175 2°53.735 243.2 13.6 241 9.8
2007-03-12 08:07:44 51°14.166 2°53.709 243.2 13.6 241 9.8
2007-03-12 08:07:49 51°14.157 2°53.682 243.2 13.6 241 9.8
2007-03-12 08:07:54 51°14.147 2°53.656 243.3 13.6 240 9.8
2007-03-12 08:07:59 51°14.138 2°53.63 243.3 13.6 241 9.9
2007-03-12 08:08:04 51°14.129 2°53.604 243.4 13.6 241 9.9
2007-03-12 08:08:08 51°14.121 2°53.582 243.5 13.6 241 10
2007-03-12 08:08:14 51°14.11 2°53.551 243.6 13.6 241 9.9
2007-03-12 08:08:19 51°14.101 2°53.525 243.6 13.6 241 9.9
2007-03-12 08:08:24 51°14.092 2°53.498 243.6 13.7 241 10
2007-03-12 08:08:28 51°14.084 2°53.477 243.5 13.7 241 10
2007-03-12 08:08:34 51°14.073 2°53.445 243.4 13.6 241 10
2007-03-12 08:08:39 51°14.064 2°53.419 243.4 13.6 241 10
2007-03-12 08:08:44 51°14.055 2°53.393 243.5 13.6 241 10.1
2007-03-12 08:08:49 51°14.045 2°53.367 243.5 13.6 241 10.1
2007-03-12 08:08:54 51°14.036 2°53.34 243.5 13.7 241 10.2
2007-03-12 08:08:59 51°14.027 2°53.314 243.8 13.7 241 10.1
2007-03-12 08:09:03 51°14.02 2°53.292 243.8 13.7 241 10.1
2007-03-12 08:09:08 51°14.011 2°53.266 243.8 13.7 241 10.2
2007-03-12 08:09:14 51°14 2°53.234 244.2 13.7 242 10.2
2007-03-12 08:09:19 51°13.991 2°53.208 244.2 13.7 241 10.2
2007-03-12 08:09:24 51°13.982 2°53.181 244.2 13.7 241 10.2
2007-03-12 08:09:29 51°13.973 2°53.155 244 13.7 241 10.3
2007-03-12 08:09:34 51°13.964 2°53.128 244 13.7 241 10.3
2007-03-12 08:09:39 51°13.954 2°53.102 243.8 13.7 242 10.3
2007-03-12 08:09:44 51°13.945 2°53.075 244 13.7 241 10.3
2007-03-12 08:09:48 51°13.938 2°53.054 244.1 13.7 241 10.4
2007-03-12 08:09:54 51°13.927 2°53.022 244.1 13.8 242 10.4
2007-03-12 08:09:59 51°13.918 2°52.995 244.2 13.8 241 10.4
2007-03-12 08:10:04 51°13.909 2°52.968 244 13.7 242 10.4
2007-03-12 08:10:08 51°13.901 2°52.947 244 13.7 241 10.5
2007-03-12 08:10:14 51°13.89 2°52.916 243.8 13.7 241 10.5
2007-03-12 08:10:18 51°13.883 2°52.894 243.8 13.8 241 10.5
2007-03-12 08:10:24 51°13.872 2°52.862 243.8 13.8 241 10.6
2007-03-12 08:10:29 51°13.863 2°52.836 243.8 13.8 241 10.6
2007-03-12 08:10:34 51°13.853 2°52.809 244.1 13.8 241 10.6
2007-03-12 08:10:38 51°13.846 2°52.788 243.9 13.7 241 10.6
2007-03-12 08:10:44 51°13.835 2°52.756 243.5 13.8 240 10.6
2007-03-12 08:10:49 51°13.825 2°52.729 243.4 13.8 241 10.6
2007-03-12 08:10:54 51°13.816 2°52.703 243.8 13.8 241 10.6
2007-03-12 08:10:59 51°13.807 2°52.676 243.8 13.7 242 10.6
2007-03-12 08:11:04 51°13.798 2°52.65 243.8 13.7 241 10.6
2007-03-12 08:11:09 51°13.788 2°52.623 243.8 13.8 241 10.6
2007-03-12 08:11:14 51°13.779 2°52.597 243.6 13.7 241 10.7
2007-03-12 08:11:19 51°13.77 2°52.57 243.4 13.7 241 10.6
2007-03-12 08:11:23 51°13.762 2°52.549 243.5 13.8 242 10.6
2007-03-12 08:11:28 51°13.753 2°52.522 243.8 13.8 241 10.7
2007-03-12 08:11:34 51°13.743 2°52.49 244.1 13.7 242 10.7
2007-03-12 08:11:39 51°13.733 2°52.463 244.3 13.7 242 10.7
2007-03-12 08:11:44 51°13.724 2°52.437 244.5 13.7 242 10.7
2007-03-12 08:11:48 51°13.717 2°52.415 244.5 13.8 242 10.7
2007-03-12 08:11:54 51°13.706 2°52.383 244.5 13.7 242 10.8
2007-03-12 08:11:59 51°13.697 2°52.356 244.5 13.7 242 10.8
2007-03-12 08:12:04 51°13.688 2°52.33 244.3 13.7 241 10.8
2007-03-12 08:12:08 51°13.681 2°52.308 243.9 13.7 241 10.8
2007-03-12 08:12:14 51°13.67 2°52.277 243.9 13.7 241 10.8
2007-03-12 08:12:19 51°13.66 2°52.25 244 13.7 242 10.8
2007-03-12 08:12:24 51°13.651 2°52.223 244.3 13.7 241 10.9
2007-03-12 08:12:28 51°13.644 2°52.202 244.3 13.8 242 10.9
2007-03-12 08:12:34 51°13.633 2°52.17 244.2 13.8 242 10.9
2007-03-12 08:12:39 51°13.624 2°52.143 244.3 13.7 241 10.9
2007-03-12 08:12:44 51°13.615 2°52.116 244.2 13.7 241 10.9
2007-03-12 08:12:48 51°13.608 2°52.095 244 13.7 241 10.8
2007-03-12 08:12:54 51°13.597 2°52.064 243.8 13.7 241 10.9
2007-03-12 08:12:59 51°13.587 2°52.037 243.8 13.7 241 10.9
2007-03-12 08:13:04 51°13.578 2°52.01 243.9 13.7 241 10.9
2007-03-12 08:13:08 51°13.571 2°51.989 244.2 13.7 242 10.9
2007-03-12 08:13:14 51°13.56 2°51.957 244.5 13.7 242 10.9
2007-03-12 08:13:19 51°13.551 2°51.93 244.5 13.7 242 10.9
2007-03-12 08:13:24 51°13.542 2°51.904 244.5 13.7 241 10.9
2007-03-12 08:13:29 51°13.533 2°51.877 244.1 13.8 242 10.9
2007-03-12 08:13:34 51°13.524 2°51.851 244.3 13.7 241 11
2007-03-12 08:13:39 51°13.515 2°51.824 244.3 13.7 241 10.9
2007-03-12 08:13:43 51°13.508 2°51.803 244 13.7 241 10.9
2007-03-12 08:13:48 51°13.499 2°51.776 243.9 13.7 242 11
2007-03-12 08:13:54 51°13.488 2°51.743 244 13.7 242 11
2007-03-12 08:13:59 51°13.479 2°51.716 244.3 13.7 241 10.9
2007-03-12 08:14:04 51°13.47 2°51.689 244.1 13.7 242 11
2007-03-12 08:14:08 51°13.463 2°51.668 244.1 13.7 241 11
2007-03-12 08:14:14 51°13.452 2°51.637 244 13.8 242 11.1
2007-03-12 08:14:19 51°13.443 2°51.611 243.9 13.7 241 11
2007-03-12 08:14:23 51°13.436 2°51.589 244.1 13.7 242 11
2007-03-12 08:14:29 51°13.425 2°51.557 244.1 13.7 242 11.1
2007-03-12 08:14:34 51°13.416 2°51.53 244.1 13.7 242 11.2
2007-03-12 08:14:39 51°13.407 2°51.504 244 13.8 242 11.1
2007-03-12 08:14:44 51°13.397 2°51.477 244 13.7 241 11.1
2007-03-12 08:14:48 51°13.39 2°51.456 244 13.7 242 11.1
2007-03-12 08:14:54 51°13.379 2°51.424 244.1 13.7 241 11.1
2007-03-12 08:14:59 51°13.37 2°51.398 243.9 13.7 242 11.1
2007-03-12 08:15:04 51°13.361 2°51.371 243.9 13.7 241 11.2
2007-03-12 08:15:09 51°13.351 2°51.345 243.9 13.8 241 11.1
2007-03-12 08:15:14 51°13.342 2°51.318 243.8 13.8 241 11.1
2007-03-12 08:15:19 51°13.333 2°51.292 243.8 13.7 241 11.2
2007-03-12 08:15:23 51°13.326 2°51.271 243.7 13.7 241 11.1
2007-03-12 08:15:28 51°13.317 2°51.244 243.8 13.7 241 11.2
2007-03-12 08:15:34 51°13.306 2°51.212 243.8 13.7 241 11.2
2007-03-12 08:15:39 51°13.297 2°51.185 243.8 13.8 241 11.3
2007-03-12 08:15:44 51°13.288 2°51.159 243.8 13.8 242 11.2
2007-03-12 08:15:49 51°13.279 2°51.132 244.2 13.7 241 11.2
2007-03-12 08:15:54 51°13.27 2°51.105 244.1 13.7 243 11.2
2007-03-12 08:15:59 51°13.261 2°51.078 244.5 13.7 242 11.3
2007-03-12 08:16:04 51°13.252 2°51.051 244.5 13.7 243 11.2
2007-03-12 08:16:08 51°13.245 2°51.03 244.7 13.8 242 11.2
2007-03-12 08:16:14 51°13.234 2°50.997 244.7 13.8 242 11.3
2007-03-12 08:16:19 51°13.225 2°50.971 244.7 13.7 242 11.3
2007-03-12 08:16:24 51°13.216 2°50.944 244.4 13.7 242 11.3
2007-03-12 08:16:28 51°13.209 2°50.923 244.3 13.8 241 11.3
2007-03-12 08:16:34 51°13.198 2°50.89 244.1 13.8 242 11.3
2007-03-12 08:16:39 51°13.189 2°50.864 244.1 13.8 242 11.3
2007-03-12 08:16:44 51°13.18 2°50.837 244.5 13.8 242 11.4
2007-03-12 08:16:48 51°13.173 2°50.816 244.4 13.8 242 11.4
2007-03-12 08:16:54 51°13.162 2°50.783 244.4 13.8 242 11.4
2007-03-12 08:16:59 51°13.153 2°50.757 244.4 13.8 242 11.4
2007-03-12 08:17:04 51°13.144 2°50.73 244.4 13.8 242 11.4
2007-03-12 08:17:08 51°13.137 2°50.708 244.5 13.8 242 11.4
2007-03-12 08:17:14 51°13.126 2°50.675 244.5 13.8 242 11.5
2007-03-12 08:17:19 51°13.118 2°50.648 244.7 13.8 242 11.5
2007-03-12 08:17:24 51°13.109 2°50.622 244.7 13.7 242 11.4
2007-03-12 08:17:29 51°13.1 2°50.595 244.4 13.8 242 11.5
2007-03-12 08:17:34 51°13.091 2°50.568 244.5 13.8 242 11.5
2007-03-12 08:17:38 51°13.084 2°50.546 244.5 13.8 242 11.5
2007-03-12 08:17:44 51°13.073 2°50.514 244.9 13.8 243 11.6
2007-03-12 08:17:49 51°13.064 2°50.487 244.8 13.8 242 11.5
2007-03-12 08:17:54 51°13.055 2°50.46 244.5 13.8 242 11.6
2007-03-12 08:17:58 51°13.048 2°50.439 244.4 13.8 242 11.6
2007-03-12 08:18:03 51°13.038 2°50.412 244.3 13.8 242 11.6
2007-03-12 08:18:09 51°13.028 2°50.38 244.2 13.8 242 11.6
2007-03-12 08:18:14 51°13.019 2°50.353 244.5 13.8 242 11.6
2007-03-12 08:18:19 51°13.01 2°50.326 244.7 13.8 242 11.6
2007-03-12 08:18:24 51°13.001 2°50.299 244.7 13.8 242 11.6
2007-03-12 08:18:28 51°12.994 2°50.277 244.6 13.8 242 11.6
2007-03-12 08:18:34 51°12.983 2°50.245 244.4 13.8 242 11.7
2007-03-12 08:18:39 51°12.974 2°50.218 244.4 13.7 242 11.7
2007-03-12 08:18:43 51°12.967 2°50.197 244.4 13.7 242 11.7
2007-03-12 08:18:48 51°12.958 2°50.17 244.4 13.7 242 11.7
2007-03-12 08:18:54 51°12.947 2°50.138 244.4 13.7 242 11.7
2007-03-12 08:18:59 51°12.938 2°50.111 244.4 13.7 242 11.7
2007-03-12 08:19:04 51°12.929 2°50.084 244.5 13.8 242 11.7
2007-03-12 08:19:08 51°12.922 2°50.063 244.4 13.8 242 11.7
2007-03-12 08:19:14 51°12.911 2°50.031 244.3 13.7 242 11.7
2007-03-12 08:19:19 51°12.902 2°50.004 244.2 13.7 242 11.8
2007-03-12 08:19:24 51°12.893 2°49.978 244.1 13.8 242 11.8
2007-03-12 08:19:28 51°12.886 2°49.956 244.1 13.8 242 11.7
2007-03-12 08:19:34 51°12.875 2°49.924 244.1 13.8 242 11.8
2007-03-12 08:19:39 51°12.866 2°49.897 244.2 13.8 242 11.8
2007-03-12 08:19:44 51°12.857 2°49.871 244.3 13.7 242 11.8
2007-03-12 08:19:49 51°12.848 2°49.844 244.5 13.8 242 11.8
2007-03-12 08:19:54 51°12.839 2°49.817 244.4 13.8 242 11.8
2007-03-12 08:19:59 51°12.83 2°49.79 244.4 13.7 242 11.8
2007-03-12 08:20:03 51°12.823 2°49.769 244 13.8 241 11.9
2007-03-12 08:20:08 51°12.814 2°49.742 243.8 13.8 241 11.9
2007-03-12 08:20:14 51°12.803 2°49.71 243.8 13.8 241 11.9
2007-03-12 08:20:19 51°12.794 2°49.683 243.9 13.8 241 11.9
2007-03-12 08:20:23 51°12.786 2°49.662 243.7 13.8 241 11.9
2007-03-12 08:20:29 51°12.775 2°49.63 243.3 13.8 241 11.9
2007-03-12 08:20:34 51°12.766 2°49.603 243.3 13.8 241 11.9
2007-03-12 08:20:39 51°12.757 2°49.577 243.3 13.8 241 11.9
2007-03-12 08:20:44 51°12.747 2°49.55 243.2 13.8 241 11.9
2007-03-12 08:20:48 51°12.74 2°49.529 243.1 13.8 241 11.9
2007-03-12 08:20:54 51°12.729 2°49.496 243.3 13.8 241 11.9
2007-03-12 08:20:59 51°12.72 2°49.47 243.5 13.8 241 11.9
2007-03-12 08:21:03 51°12.712 2°49.448 243.7 13.9 242 12
2007-03-12 08:21:08 51°12.703 2°49.421 244 13.8 241 12
2007-03-12 08:21:14 51°12.692 2°49.39 243.6 13.8 241 12
2007-03-12 08:21:19 51°12.683 2°49.363 243.4 13.8 241 12.1
2007-03-12 08:21:24 51°12.673 2°49.336 243.3 13.9 241 12
2007-03-12 08:21:29 51°12.664 2°49.309 243.3 13.8 241 12
2007-03-12 08:21:34 51°12.655 2°49.282 243.3 13.8 241 12.1
2007-03-12 08:21:39 51°12.645 2°49.256 243.2 13.8 241 12
2007-03-12 08:21:43 51°12.638 2°49.235 243.1 13.8 241 12.1
2007-03-12 08:21:49 51°12.627 2°49.202 242.9 13.9 241 12.1
2007-03-12 08:21:54 51°12.618 2°49.176 243.1 13.8 241 12.1
2007-03-12 08:21:59 51°12.608 2°49.149 243.1 13.9 241 12.1
2007-03-12 08:22:04 51°12.599 2°49.122 243.1 13.9 241 12.1
2007-03-12 08:22:09 51°12.589 2°49.096 243.1 13.8 241 12.1
2007-03-12 08:22:14 51°12.58 2°49.069 243.1 13.8 241 12.1
2007-03-12 08:22:19 51°12.571 2°49.042 243 13.8 241 12
2007-03-12 08:22:23 51°12.563 2°49.021 242.9 13.9 241 12.1
2007-03-12 08:22:29 51°12.552 2°48.989 243.3 13.8 241 12.1
2007-03-12 08:22:34 51°12.543 2°48.962 243.3 13.8 241 12.1
2007-03-12 08:22:39 51°12.534 2°48.935 243.5 13.8 241 12.1
2007-03-12 08:22:43 51°12.526 2°48.913 243.5 13.8 241 12.1
2007-03-12 08:22:48 51°12.517 2°48.886 243.5 13.8 241 12.1
2007-03-12 08:22:54 51°12.506 2°48.854 243.3 13.8 241 12.1
2007-03-12 08:22:59 51°12.497 2°48.827 243.3 13.8 241 12.2
2007-03-12 08:23:04 51°12.488 2°48.8 243.2 13.8 241 12.2
2007-03-12 08:23:08 51°12.48 2°48.779 243.2 13.9 241 12.2
2007-03-12 08:23:14 51°12.469 2°48.746 243.2 13.9 241 12.2
2007-03-12 08:23:19 51°12.46 2°48.72 243.1 13.8 241 12.2
2007-03-12 08:23:24 51°12.45 2°48.693 243 13.9 241 12.2
2007-03-12 08:23:28 51°12.443 2°48.672 242.9 13.9 241 12.2
2007-03-12 08:23:33 51°12.434 2°48.645 243.1 13.9 241 12.2
2007-03-12 08:23:39 51°12.422 2°48.612 243.3 13.9 241 12.3
2007-03-12 08:23:44 51°12.413 2°48.585 243.3 13.9 242 12.2
2007-03-12 08:23:48 51°12.406 2°48.564 243.4 13.9 241 12.2
2007-03-12 08:23:54 51°12.395 2°48.531 243.6 13.9 242 12.3
2007-03-12 08:23:59 51°12.386 2°48.504 243.7 13.9 241 12.3
2007-03-12 08:24:04 51°12.376 2°48.478 243.4 13.9 241 12.3
2007-03-12 08:24:08 51°12.369 2°48.456 243.4 13.9 242 12.3
2007-03-12 08:24:14 51°12.358 2°48.424 243.4 13.9 241 12.3
2007-03-12 08:24:19 51°12.349 2°48.397 243.4 13.9 242 12.3
2007-03-12 08:24:24 51°12.339 2°48.37 243.5 13.9 241 12.3
2007-03-12 08:24:29 51°12.33 2°48.343 243.4 13.9 241 12.3
2007-03-12 08:24:34 51°12.321 2°48.316 243.3 13.9 241 12.3
2007-03-12 08:24:39 51°12.311 2°48.289 243.3 13.9 241 12.4
2007-03-12 08:24:43 51°12.304 2°48.268 243.1 13.8 241 12.4
2007-03-12 08:24:49 51°12.293 2°48.236 243.1 13.9 241 12.3
2007-03-12 08:24:54 51°12.283 2°48.209 243.1 13.9 241 12.3
2007-03-12 08:24:58 51°12.276 2°48.188 243 13.8 240 12.3
2007-03-12 08:25:03 51°12.266 2°48.162 242.7 13.8 241 12.4
2007-03-12 08:25:09 51°12.255 2°48.129 242.9 13.8 241 12.4
2007-03-12 08:25:14 51°12.246 2°48.103 243.1 13.9 241 12.4
2007-03-12 08:25:19 51°12.237 2°48.076 243.1 13.9 241 12.3
2007-03-12 08:25:23 51°12.229 2°48.054 243.1 13.9 241 12.4
2007-03-12 08:25:29 51°12.218 2°48.022 243.2 13.9 241 12.5
2007-03-12 08:25:34 51°12.209 2°47.995 243.3 13.9 241 12.4
2007-03-12 08:25:39 51°12.199 2°47.968 243.4 13.9 242 12.4
2007-03-12 08:25:44 51°12.19 2°47.941 243.8 13.9 241 12.4
2007-03-12 08:25:48 51°12.183 2°47.92 243.8 13.9 241 12.4
2007-03-12 08:25:54 51°12.171 2°47.887 243.7 13.9 241 12.4
2007-03-12 08:25:59 51°12.162 2°47.861 243.4 13.9 241 12.4
2007-03-12 08:26:04 51°12.153 2°47.834 243.5 13.9 241 12.5
2007-03-12 08:26:09 51°12.144 2°47.807 243.5 13.9 241 12.3
2007-03-12 08:26:14 51°12.134 2°47.78 243.6 13.9 242 12.3
2007-03-12 08:26:19 51°12.125 2°47.753 243.7 13.9 241 12.3
2007-03-12 08:26:24 51°12.116 2°47.726 243.6 13.9 241 12.4
2007-03-12 08:26:28 51°12.108 2°47.705 243.6 13.9 241 12.3
2007-03-12 08:26:34 51°12.097 2°47.672 243.6 13.9 241 12.4
2007-03-12 08:26:39 51°12.088 2°47.646 243.6 13.9 241 12.3
2007-03-12 08:26:44 51°12.079 2°47.619 243.6 13.9 241 12.4
2007-03-12 08:26:49 51°12.069 2°47.592 243.6 13.9 241 12.4
2007-03-12 08:26:54 51°12.06 2°47.565 243.6 13.9 241 12.3
2007-03-12 08:26:59 51°12.051 2°47.538 243.8 13.9 242 12.3
2007-03-12 08:27:04 51°12.042 2°47.511 243.8 13.9 242 12.3
2007-03-12 08:27:09 51°12.033 2°47.484 243.8 13.9 241 12.3
2007-03-12 08:27:14 51°12.023 2°47.457 243.5 13.9 241 12.3
2007-03-12 08:27:19 51°12.014 2°47.43 243.3 13.9 241 12.3
2007-03-12 08:27:23 51°12.007 2°47.409 243.3 13.9 241 12.3
2007-03-12 08:27:28 51°11.997 2°47.382 243.4 13.9 241 12.3
2007-03-12 08:27:34 51°11.987 2°47.349 243.6 13.9 243 12.3
2007-03-12 08:27:39 51°11.978 2°47.322 245 13.9 244 12.3
2007-03-12 08:27:44 51°11.97 2°47.294 246.3 13.9 245 12.2
2007-03-12 08:27:48 51°11.964 2°47.271 247.5 13.9 246 12.2
2007-03-12 08:27:54 51°11.955 2°47.238 248.6 13.9 247 12.3
2007-03-12 08:27:59 51°11.948 2°47.209 249.4 13.9 248 12.2
2007-03-12 08:28:04 51°11.94 2°47.181 249.9 13.9 248 12.3
2007-03-12 08:28:08 51°11.935 2°47.158 250.5 13.9 249 12.3
2007-03-12 08:28:14 51°11.927 2°47.123 251.5 13.9 250 12.3
2007-03-12 08:28:19 51°11.921 2°47.094 252.6 14 251 12.3
2007-03-12 08:28:24 51°11.914 2°47.065 253.5 14 252 12.4
2007-03-12 08:28:29 51°11.909 2°47.035 254 14 252 12.4
2007-03-12 08:28:34 51°11.903 2°47.006 254.5 14 252 12.4
2007-03-12 08:28:38 51°11.898 2°46.983 254.9 14 252 12.5
2007-03-12 08:28:44 51°11.891 2°46.947 254.8 14 252 12.5
2007-03-12 08:28:49 51°11.885 2°46.918 254.6 14 252 12.5
2007-03-12 08:28:54 51°11.879 2°46.889 254.6 14 252 12.5
2007-03-12 08:28:58 51°11.874 2°46.865 254.5 14 252 12.6
2007-03-12 08:29:03 51°11.868 2°46.836 254.7 14 252 12.6
2007-03-12 08:29:09 51°11.862 2°46.8 254.7 14 252 12.7
2007-03-12 08:29:14 51°11.856 2°46.771 254.8 14 252 12.6
2007-03-12 08:29:19 51°11.85 2°46.742 254.8 14 252 12.6
2007-03-12 08:29:24 51°11.844 2°46.712 254.8 14 252 12.7
2007-03-12 08:29:29 51°11.838 2°46.683 254.9 14 252 12.7
2007-03-12 08:29:34 51°11.833 2°46.653 255.1 14 253 12.7
2007-03-12 08:29:39 51°11.827 2°46.624 255.3 14 253 12.8
2007-03-12 08:29:43 51°11.822 2°46.6 255.3 14 253 12.8
2007-03-12 08:29:48 51°11.817 2°46.571 255.2 14 253 12.9
2007-03-12 08:29:54 51°11.809 2°46.536 255.1 13.9 252 12.9
2007-03-12 08:29:59 51°11.804 2°46.506 254.7 14 252 12.9
2007-03-12 08:30:04 51°11.797 2°46.477 254.4 13.9 251 12.9
2007-03-12 08:30:08 51°11.792 2°46.454 253.6 13.9 251 12.9
2007-03-12 08:30:14 51°11.785 2°46.419 253.3 13.9 251 12.9
2007-03-12 08:30:19 51°11.778 2°46.391 253 13.9 250 12.9
2007-03-12 08:30:24 51°11.772 2°46.361 252.7 13.9 251 12.9
2007-03-12 08:30:28 51°11.766 2°46.338 252.7 13.9 250 12.9
2007-03-12 08:30:34 51°11.759 2°46.304 252.8 13.9 250 12.9
2007-03-12 08:30:39 51°11.752 2°46.275 252.6 13.9 250 13
2007-03-12 08:30:44 51°11.746 2°46.246 252.6 13.9 250 12.9
2007-03-12 08:30:49 51°11.739 2°46.217 252.5 13.9 250 12.9
2007-03-12 08:30:54 51°11.733 2°46.189 252.5 13.9 250 12.9
2007-03-12 08:30:59 51°11.726 2°46.16 252.5 13.8 250 12.9
2007-03-12 08:31:04 51°11.719 2°46.131 252.5 13.8 250 12.9
2007-03-12 08:31:08 51°11.714 2°46.108 252.1 13.9 250 12.9
2007-03-12 08:31:14 51°11.706 2°46.074 252.1 13.9 250 12.9
2007-03-12 08:31:19 51°11.7 2°46.045 252.3 13.9 250 12.9
2007-03-12 08:31:23 51°11.694 2°46.022 252.5 13.9 250 12.9
2007-03-12 08:31:29 51°11.687 2°45.987 252.6 13.9 250 12.9
2007-03-12 08:31:34 51°11.68 2°45.958 252.6 13.9 250 12.9
2007-03-12 08:31:39 51°11.673 2°45.93 252.6 13.9 250 12.9
2007-03-12 08:31:44 51°11.667 2°45.901 252.5 13.9 250 12.9
2007-03-12 08:31:49 51°11.66 2°45.872 252.4 13.9 250 12.9
2007-03-12 08:31:54 51°11.653 2°45.843 252.4 13.9 250 12.9
2007-03-12 08:31:59 51°11.647 2°45.814 252.4 13.9 250 12.9
2007-03-12 08:32:03 51°11.641 2°45.791 252.4 13.9 250 12.9
2007-03-12 08:32:08 51°11.635 2°45.762 252.3 13.9 250 12.9
2007-03-12 08:32:14 51°11.626 2°45.728 252.1 13.9 250 12.9
2007-03-12 08:32:19 51°11.62 2°45.699 252.1 13.9 250 12.9
2007-03-12 08:32:24 51°11.613 2°45.67 252.5 13.9 250 12.9
2007-03-12 08:32:29 51°11.607 2°45.641 252.6 13.9 250 12.9
2007-03-12 08:32:34 51°11.6 2°45.612 252.6 13.9 250 12.8
2007-03-12 08:32:39 51°11.593 2°45.584 252.5 13.9 250 12.9
2007-03-12 08:32:43 51°11.588 2°45.561 252.5 13.9 250 12.9
2007-03-12 08:32:49 51°11.58 2°45.526 252.4 13.9 250 12.9
2007-03-12 08:32:54 51°11.574 2°45.497 252.5 13.9 251 12.9
2007-03-12 08:32:59 51°11.567 2°45.468 252.6 13.9 250 12.9
2007-03-12 08:33:04 51°11.561 2°45.439 252.6 13.9 251 12.8
2007-03-12 08:33:09 51°11.554 2°45.41 252.7 13.9 250 12.8
2007-03-12 08:33:14 51°11.548 2°45.381 252.8 14 250 12.8
2007-03-12 08:33:19 51°11.541 2°45.352 252.8 13.9 250 12.8
2007-03-12 08:33:24 51°11.535 2°45.323 252.9 14 250 12.8
2007-03-12 08:33:29 51°11.528 2°45.294 252.6 14 250 12.8
2007-03-12 08:33:34 51°11.521 2°45.265 252.4 13.9 250 12.8
2007-03-12 08:33:39 51°11.515 2°45.236 252.5 14 251 12.8
2007-03-12 08:33:43 51°11.51 2°45.212 253.5 14 252 12.8
2007-03-12 08:33:49 51°11.503 2°45.177 254.2 13.9 252 12.8
2007-03-12 08:33:54 51°11.498 2°45.148 254.7 13.9 253 12.8
2007-03-12 08:33:58 51°11.493 2°45.124 254.9 14 253 12.8
2007-03-12 08:34:03 51°11.487 2°45.095 255.1 14 253 12.8
2007-03-12 08:34:08 51°11.481 2°45.065 255.3 14 253 12.8
2007-03-12 08:34:14 51°11.475 2°45.03 255.3 13.9 253 12.8
2007-03-12 08:34:18 51°11.47 2°45.006 255.4 14 253 12.8
2007-03-12 08:34:23 51°11.464 2°44.977 255.5 14 253 12.8
2007-03-12 08:34:28 51°11.459 2°44.947 255.6 14 253 12.8
2007-03-12 08:34:34 51°11.452 2°44.912 255.5 14 253 12.8
2007-03-12 08:34:38 51°11.447 2°44.888 255.4 14 253 12.8
2007-03-12 08:34:43 51°11.442 2°44.859 255.4 14 253 12.8
2007-03-12 08:34:48 51°11.436 2°44.829 255.6 14 253 12.8
2007-03-12 08:34:53 51°11.43 2°44.8 255.6 14 253 12.8
2007-03-12 08:34:59 51°11.424 2°44.764 255.6 14 253 12.8
2007-03-12 08:35:03 51°11.419 2°44.741 255.6 13.9 253 12.8
2007-03-12 08:35:08 51°11.413 2°44.711 255.6 14 253 12.7
2007-03-12 08:35:13 51°11.408 2°44.682 255.6 14 253 12.8
2007-03-12 08:35:18 51°11.402 2°44.652 255.8 14 253 12.8
2007-03-12 08:35:23 51°11.397 2°44.622 255.8 14 254 12.8
2007-03-12 08:35:28 51°11.391 2°44.593 255.9 14 253 12.8
2007-03-12 08:35:34 51°11.385 2°44.557 256 14 254 12.8
2007-03-12 08:35:38 51°11.38 2°44.534 256.1 14 253 12.7
2007-03-12 08:35:43 51°11.374 2°44.504 255.6 14 253 12.8
2007-03-12 08:35:48 51°11.369 2°44.475 255.4 14 253 12.8
2007-03-12 08:35:54 51°11.362 2°44.439 255.3 14 253 12.8
2007-03-12 08:35:58 51°11.357 2°44.416 255.4 14 253 12.8
2007-03-12 08:36:03 51°11.352 2°44.386 255.5 14 253 12.8
2007-03-12 08:36:08 51°11.346 2°44.357 255.4 14 253 12.8
2007-03-12 08:36:13 51°11.34 2°44.327 255.4 14 253 12.7
2007-03-12 08:36:18 51°11.334 2°44.298 255.4 14 253 12.7
2007-03-12 08:36:23 51°11.329 2°44.268 255.4 14 253 12.7
2007-03-12 08:36:28 51°11.323 2°44.239 255.4 14 253 12.7
2007-03-12 08:36:33 51°11.317 2°44.209 255.4 14 253 12.8
2007-03-12 08:36:38 51°11.312 2°44.179 255.4 14 253 12.7
2007-03-12 08:36:43 51°11.306 2°44.15 255.4 14 253 12.8
2007-03-12 08:36:48 51°11.3 2°44.12 255.4 14 253 12.7
2007-03-12 08:36:53 51°11.295 2°44.091 255.4 14 253 12.8
2007-03-12 08:36:59 51°11.288 2°44.055 255.4 14 253 12.7
2007-03-12 08:37:03 51°11.283 2°44.032 255.4 14 253 12.7
2007-03-12 08:37:08 51°11.278 2°44.002 255.4 14.1 253 12.7
2007-03-12 08:37:13 51°11.272 2°43.972 255.7 14 253 12.7
2007-03-12 08:37:18 51°11.266 2°43.943 255.7 14 253 12.7
2007-03-12 08:37:23 51°11.261 2°43.913 255.7 14 254 12.7
2007-03-12 08:37:28 51°11.256 2°43.883 256.7 14 256 12.7
2007-03-12 08:37:34 51°11.251 2°43.847 258.2 14 256 12.7
2007-03-12 08:37:38 51°11.247 2°43.823 259.4 14 258 12.7
2007-03-12 08:37:43 51°11.244 2°43.793 260.2 14 258 12.7
2007-03-12 08:37:48 51°11.24 2°43.762 261.7 14 261 12.7
2007-03-12 08:37:54 51°11.237 2°43.725 263.1 14 260 12.7
2007-03-12 08:37:58 51°11.234 2°43.701 263.8 14 262 12.7
2007-03-12 08:38:03 51°11.232 2°43.67 264.9 14.1 262 12.8
2007-03-12 08:38:08 51°11.229 2°43.639 265.4 14 263 12.7
2007-03-12 08:38:13 51°11.227 2°43.609 265.6 14 263 12.8
2007-03-12 08:38:18 51°11.225 2°43.578 265.9 14.1 263 12.8
2007-03-12 08:38:23 51°11.222 2°43.547 266.1 14.1 263 12.8
2007-03-12 08:38:28 51°11.22 2°43.516 266.1 14.1 263 12.8
2007-03-12 08:38:33 51°11.218 2°43.486 266.1 13.6 263 12.8
2007-03-12 08:38:38 51°11.216 2°43.458 266 13 264 12.7
2007-03-12 08:38:43 51°11.213 2°43.43 266 12.5 262 12.7
2007-03-12 08:38:48 51°11.211 2°43.404 265.7 11.8 263 12.8
2007-03-12 08:38:54 51°11.209 2°43.374 265.1 11.3 262 12.9
2007-03-12 08:38:58 51°11.207 2°43.355 264.9 11.1 262 12.9
2007-03-12 08:39:03 51°11.205 2°43.331 264.3 11 261 12.9
2007-03-12 08:39:08 51°11.202 2°43.307 263.4 10.9 260 13
2007-03-12 08:39:14 51°11.198 2°43.279 261.7 10.7 257 12.9
2007-03-12 08:39:18 51°11.195 2°43.261 259.9 10.7 256 12.9
2007-03-12 08:39:23 51°11.192 2°43.238 258.3 10.6 256 12.9
2007-03-12 08:39:28 51°11.188 2°43.215 257.1 10.6 256 12.9
2007-03-12 08:39:33 51°11.185 2°43.193 258.7 10.5 259 13
2007-03-12 08:39:38 51°11.183 2°43.17 261.8 10.5 262 12.9
2007-03-12 08:39:43 51°11.181 2°43.147 264.1 10.5 263 12.9
2007-03-12 08:39:48 51°11.18 2°43.124 265.6 10.5 265 12.9
2007-03-12 08:39:53 51°11.179 2°43.101 268.1 10.4 267 12.9
2007-03-12 08:39:58 51°11.179 2°43.078 270 10.4 269 12.9
2007-03-12 08:40:03 51°11.179 2°43.055 271.8 10.4 270 12.9
2007-03-12 08:40:08 51°11.179 2°43.032 273.3 10.4 271 12.9
2007-03-12 08:40:13 51°11.179 2°43.009 274.3 10.4 271 12.9
2007-03-12 08:40:18 51°11.179 2°42.986 274.7 10.4 270 12.9
2007-03-12 08:40:23 51°11.179 2°42.963 273 10.3 269 12.9
2007-03-12 08:40:28 51°11.178 2°42.94 270.6 10.3 267 12.9
2007-03-12 08:40:34 51°11.178 2°42.913 269.5 10.4 268 12.9
2007-03-12 08:40:38 51°11.177 2°42.895 269.5 10.4 267 12.9
2007-03-12 08:40:43 51°11.177 2°42.872 270 10.4 268 12.8
2007-03-12 08:40:48 51°11.176 2°42.849 270.2 10.4 267 12.8
2007-03-12 08:40:54 51°11.175 2°42.822 270.1 10.4 267 12.8
2007-03-12 08:40:58 51°11.174 2°42.803 269.7 10.3 267 12.8
2007-03-12 08:41:03 51°11.173 2°42.78 269.2 10.3 266 12.8
2007-03-12 08:41:08 51°11.172 2°42.758 268.8 10.4 266 12.8
2007-03-12 08:41:13 51°11.171 2°42.735 268.3 10.3 265 12.8
2007-03-12 08:41:18 51°11.17 2°42.713 267.7 9.9 265 12.8
2007-03-12 08:41:23 51°11.169 2°42.692 267 9.5 264 12.7
2007-03-12 08:41:28 51°11.167 2°42.672 266.3 9.1 263 12.7
2007-03-12 08:41:34 51°11.165 2°42.649 265.3 8.6 262 12.7
2007-03-12 08:41:38 51°11.164 2°42.634 264.1 8.3 261 12.7
2007-03-12 08:41:43 51°11.162 2°42.617 262.7 8 260 12.7
2007-03-12 08:41:48 51°11.16 2°42.6 261.8 7.7 259 12.7
2007-03-12 08:41:53 51°11.158 2°42.584 260.7 7.5 259 12.7
2007-03-12 08:41:58 51°11.156 2°42.568 259.9 7.3 258 12.7
2007-03-12 08:42:03 51°11.154 2°42.553 259.4 7.1 258 12.7
2007-03-12 08:42:08 51°11.152 2°42.538 259.1 6.9 258 12.7
2007-03-12 08:42:13 51°11.15 2°42.523 258.9 6.7 258 12.7
2007-03-12 08:42:19 51°11.148 2°42.506 258.6 6.5 258 12.7
2007-03-12 08:42:23 51°11.146 2°42.495 258.6 6.4 257 12.7
2007-03-12 08:42:28 51°11.144 2°42.482 258.5 6.2 258 12.7
2007-03-12 08:42:33 51°11.143 2°42.469 258.5 6 258 12.7
2007-03-12 08:42:38 51°11.141 2°42.456 258.5 5.9 258 12.6
2007-03-12 08:42:43 51°11.139 2°42.443 258.5 5.7 257 12.7
2007-03-12 08:42:48 51°11.138 2°42.431 258.3 5.7 258 12.7
2007-03-12 08:42:54 51°11.135 2°42.416 258.3 5.9 258 12.7
2007-03-12 08:42:58 51°11.134 2°42.405 258.2 6.2 258 12.6
2007-03-12 08:43:03 51°11.132 2°42.391 258.3 6.4 258 12.6
2007-03-12 08:43:08 51°11.13 2°42.377 259 6.7 259 12.6
2007-03-12 08:43:14 51°11.128 2°42.359 259.7 6.9 259 12.6
2007-03-12 08:43:18 51°11.127 2°42.347 260.5 7 260 12.6
2007-03-12 08:43:23 51°11.125 2°42.332 261.3 6.9 261 12.6
2007-03-12 08:43:28 51°11.124 2°42.318 262.4 6.7 262 12.5
2007-03-12 08:43:34 51°11.122 2°42.301 263.2 6.5 262 12.6
2007-03-12 08:43:38 51°11.121 2°42.29 263.8 6.4 263 12.5
2007-03-12 08:43:43 51°11.12 2°42.276 263.8 6.2 262 12.5
2007-03-12 08:43:48 51°11.119 2°42.263 263.6 6 262 12.6
2007-03-12 08:43:54 51°11.118 2°42.248 262.9 5.9 262 12.6
2007-03-12 08:43:58 51°11.117 2°42.238 262.2 5.7 261 12.5
2007-03-12 08:44:03 51°11.115 2°42.225 261.5 5.6 261 12.5
2007-03-12 08:44:08 51°11.114 2°42.214 260.9 5.5 260 12.5
2007-03-12 08:44:13 51°11.112 2°42.202 259.9 5.3 259 12.5
2007-03-12 08:44:18 51°11.111 2°42.191 258.9 5.2 258 12.6
2007-03-12 08:44:23 51°11.109 2°42.18 257.8 5.1 257 12.6
2007-03-12 08:44:28 51°11.108 2°42.169 257.1 4.9 257 12.5
2007-03-12 08:44:34 51°11.106 2°42.157 256.2 4.8 256 12.5
2007-03-12 08:44:38 51°11.105 2°42.149 255.4 4.6 255 12.5
2007-03-12 08:44:43 51°11.103 2°42.14 254.2 4.5 255 12.5
2007-03-12 08:44:48 51°11.101 2°42.13 253.5 4.4 254 12.5
2007-03-12 08:44:53 51°11.1 2°42.121 252.6 4.2 253 12.5
2007-03-12 08:44:58 51°11.098 2°42.113 251.7 4.1 252 12.6
2007-03-12 08:45:03 51°11.096 2°42.105 250.4 3.8 251 12.5
2007-03-12 08:45:08 51°11.095 2°42.097 249.4 3.5 251 12.5
2007-03-12 08:45:13 51°11.093 2°42.091 247.6 3.1 251 12.5
2007-03-12 08:45:18 51°11.092 2°42.085 246.1 2.9 251 12.5
2007-03-12 08:45:23 51°11.091 2°42.08 246 2.5 253 12.5
2007-03-12 08:45:28 51°11.09 2°42.075 248 2 254 12.5
2007-03-12 08:45:33 51°11.09 2°42.072 250.4 1.6 261 12.5
2007-03-12 08:45:38 51°11.089 2°42.069 252.8 1.4 261 12.5
2007-03-12 08:45:43 51°11.089 2°42.066 255.4 1.1 266 12.5
2007-03-12 08:45:48 51°11.089 2°42.064 256.8 1 269 12.5
2007-03-12 08:45:54 51°11.089 2°42.061 258.2 1 268 12.5
2007-03-12 08:45:58 51°11.089 2°42.06 259.1 1 275 12.5
2007-03-12 08:46:03 51°11.089 2°42.057 260.1 1 272 12.5
2007-03-12 08:46:08 51°11.09 2°42.055 260.7 1 275 12.5
2007-03-12 08:46:13 51°11.09 2°42.053 261.6 1 274 12.5
2007-03-12 08:46:18 51°11.09 2°42.051 262.6 1 277 12.5
2007-03-12 08:46:23 51°11.09 2°42.049 263.3 1 279 12.5
2007-03-12 08:46:28 51°11.09 2°42.047 264.1 0.9 278 12.5
2007-03-12 08:46:33 51°11.09 2°42.045 264.9 0.9 281 12.5
2007-03-12 08:46:38 51°11.091 2°42.043 265.6 0.9 277 12.5
2007-03-12 08:46:43 51°11.091 2°42.041 266.1 0.9 279 12.5
2007-03-12 08:46:48 51°11.091 2°42.039 266.8 0.9 281 12.5
2007-03-12 08:46:53 51°11.091 2°42.037 267.5 0.9 281 12.5
2007-03-12 08:46:58 51°11.092 2°42.035 268 0.9 283 12.5
2007-03-12 08:47:03 51°11.092 2°42.033 268.5 0.9 285 12.4
2007-03-12 08:47:08 51°11.092 2°42.031 269 0.9 284 12.4
2007-03-12 08:47:13 51°11.093 2°42.029 269.5 0.9 286 12.4
2007-03-12 08:47:18 51°11.093 2°42.027 270 0.9 284 12.4
2007-03-12 08:47:23 51°11.093 2°42.025 270.2 1 288 12.4
2007-03-12 08:47:28 51°11.094 2°42.023 270.6 0.9 286 12.4
2007-03-12 08:47:33 51°11.094 2°42.021 270.8 0.9 286 12.4
2007-03-12 08:47:38 51°11.094 2°42.019 271 0.9 287 12.4
2007-03-12 08:47:43 51°11.094 2°42.017 271.1 0.9 285 12.4
2007-03-12 08:47:48 51°11.095 2°42.015 271.2 0.9 287 12.4
2007-03-12 08:47:53 51°11.095 2°42.013 271.3 0.9 287 12.4
2007-03-12 08:47:58 51°11.096 2°42.012 271.3 0.9 289 12.4
2007-03-12 08:48:03 51°11.096 2°42.01 271.3 0.9 288 12.4
2007-03-12 08:48:08 51°11.096 2°42.008 271.3 0.9 288 12.4
2007-03-12 08:48:14 51°11.097 2°42.006 271.2 0.9 288 12.4
2007-03-12 08:48:18 51°11.097 2°42.004 270.9 0.9 289 12.4
2007-03-12 08:48:23 51°11.097 2°42.002 270.8 0.9 287 12.4
2007-03-12 08:48:28 51°11.098 2°42 270.5 0.9 293 12.3
2007-03-12 08:48:34 51°11.098 2°41.998 270.2 0.8 287 12.4
2007-03-12 08:48:38 51°11.099 2°41.997 269.8 0.9 291 12.4
2007-03-12 08:48:43 51°11.099 2°41.995 269.4 0.8 286 12.4
2007-03-12 08:48:48 51°11.1 2°41.993 269.1 0.9 291 12.4
2007-03-12 08:48:53 51°11.1 2°41.991 268.6 0.8 287 12.4
2007-03-12 08:48:58 51°11.1 2°41.99 268.3 0.8 289 12.4
2007-03-12 08:49:03 51°11.1 2°41.988 267.9 0.8 287 12.4
2007-03-12 08:49:08 51°11.101 2°41.986 267.4 0.8 293 12.4
2007-03-12 08:49:13 51°11.101 2°41.985 267 0.8 290 12.3
2007-03-12 08:49:18 51°11.102 2°41.983 266.5 0.8 290 12.3
2007-03-12 08:49:23 51°11.102 2°41.981 266.2 0.9 292 12.3
2007-03-12 08:49:28 51°11.103 2°41.979 265.8 0.8 294 12.3
2007-03-12 08:49:33 51°11.103 2°41.978 265.5 0.8 289 12.4
2007-03-12 08:49:38 51°11.103 2°41.976 265.1 0.8 291 12.3
2007-03-12 08:49:43 51°11.104 2°41.975 264.7 0.8 289 12.3
2007-03-12 08:49:48 51°11.104 2°41.973 264.3 0.8 292 12.3
2007-03-12 08:49:54 51°11.105 2°41.971 264.1 0.8 288 12.3
2007-03-12 08:49:58 51°11.105 2°41.97 263.8 0.8 296 12.3
2007-03-12 08:50:03 51°11.105 2°41.968 263.6 0.8 288 12.3
2007-03-12 08:50:08 51°11.106 2°41.966 263.4 0.8 294 12.3
2007-03-12 08:50:14 51°11.106 2°41.964 263.2 0.7 287 12.3
2007-03-12 08:50:18 51°11.107 2°41.963 263 0.8 294 12.3
2007-03-12 08:50:23 51°11.107 2°41.962 262.8 0.7 288 12.3
2007-03-12 08:50:28 51°11.108 2°41.96 262.7 0.8 295 12.3
2007-03-12 08:50:34 51°11.108 2°41.958 262.4 0.8 292 12.3
2007-03-12 08:50:38 51°11.108 2°41.957 262.3 0.8 292 12.3
2007-03-12 08:50:43 51°11.109 2°41.955 262.2 0.7 289 12.3
2007-03-12 08:50:48 51°11.109 2°41.954 262 0.8 293 12.3
2007-03-12 08:50:54 51°11.109 2°41.952 262 0.8 294 12.3
2007-03-12 08:50:58 51°11.11 2°41.951 261.8 0.7 291 12.3
2007-03-12 08:51:03 51°11.11 2°41.95 261.7 0.7 293 12.3
2007-03-12 08:51:08 51°11.111 2°41.948 261.6 0.7 292 12.3
2007-03-12 08:51:13 51°11.111 2°41.947 261.5 0.7 291 12.3
2007-03-12 08:51:18 51°11.111 2°41.945 261.4 0.7 293 12.4
2007-03-12 08:51:23 51°11.112 2°41.944 261.3 0.8 294 12.3
2007-03-12 08:51:28 51°11.112 2°41.942 261.3 0.7 297 12.4
2007-03-12 08:51:33 51°11.113 2°41.941 261.2 0.7 291 12.3
2007-03-12 08:51:38 51°11.113 2°41.94 261.1 0.7 295 12.3
2007-03-12 08:51:43 51°11.114 2°41.938 260.9 0.7 295 12.3
2007-03-12 08:51:48 51°11.114 2°41.937 260.9 0.7 297 12.3
2007-03-12 08:51:53 51°11.114 2°41.935 260.8 0.7 292 12.3
2007-03-12 08:51:58 51°11.115 2°41.934 260.8 0.7 294 12.3
2007-03-12 08:52:03 51°11.115 2°41.933 260.7 0.7 298 12.3
2007-03-12 08:52:08 51°11.115 2°41.931 260.5 0.7 294 12.3
2007-03-12 08:52:13 51°11.116 2°41.93 260.5 0.7 295 12.3
2007-03-12 08:52:18 51°11.116 2°41.928 260.5 0.7 299 12.3
2007-03-12 08:52:23 51°11.117 2°41.927 260.5 0.7 293 12.3
2007-03-12 08:52:28 51°11.117 2°41.926 260.4 0.7 299 12.2
2007-03-12 08:52:34 51°11.118 2°41.924 260.3 0.7 295 12.3
2007-03-12 08:52:38 51°11.118 2°41.923 260.2 0.7 297 12.2
2007-03-12 08:52:43 51°11.118 2°41.922 260.2 0.7 296 12.3
2007-03-12 08:52:48 51°11.119 2°41.92 260.2 0.7 300 12.2
2007-03-12 08:52:53 51°11.119 2°41.919 260.2 0.7 292 12.3
2007-03-12 08:52:58 51°11.12 2°41.918 260.2 0.7 297 12.3
2007-03-12 08:53:03 51°11.12 2°41.916 260.2 0.7 296 12.3
2007-03-12 08:53:08 51°11.121 2°41.915 260.1 0.7 298 12.2
2007-03-12 08:53:13 51°11.121 2°41.914 260.1 0.7 296 12.2
2007-03-12 08:53:18 51°11.122 2°41.913 260 0.7 302 12.2
2007-03-12 08:53:23 51°11.122 2°41.911 259.9 0.6 294 12.2
2007-03-12 08:53:28 51°11.123 2°41.91 259.9 0.7 300 12.2
2007-03-12 08:53:33 51°11.123 2°41.909 259.9 0.7 298 12.2
2007-03-12 08:53:38 51°11.124 2°41.907 259.9 0.7 299 12.2
2007-03-12 08:53:43 51°11.124 2°41.906 260 0.6 299 12.2
2007-03-12 08:53:48 51°11.124 2°41.905 260 0.7 299 12.2
2007-03-12 08:53:53 51°11.125 2°41.904 260.1 0.7 302 12.2
2007-03-12 08:53:58 51°11.125 2°41.903 260.1 0.7 299 12.2
2007-03-12 08:54:03 51°11.126 2°41.901 260.2 0.7 299 12.2
2007-03-12 08:54:08 51°11.126 2°41.9 260.4 0.8 296 12.2
2007-03-12 08:54:13 51°11.127 2°41.898 260.4 0.9 282 12.2
2007-03-12 08:54:18 51°11.127 2°41.895 259.9 1.2 277 12.2
2007-03-12 08:54:23 51°11.127 2°41.892 259.4 1.5 273 12.2
2007-03-12 08:54:28 51°11.127 2°41.888 258.5 2 267 12.2
2007-03-12 08:54:33 51°11.127 2°41.883 257.2 2.3 262 12.2
2007-03-12 08:54:38 51°11.126 2°41.877 255.7 2.8 261 12.2
2007-03-12 08:54:43 51°11.125 2°41.87 254.4 3.1 258 12.2
2007-03-12 08:54:48 51°11.124 2°41.863 253 3.6 256 12.2
2007-03-12 08:54:54 51°11.122 2°41.852 251.7 4.2 252 12.2
2007-03-12 08:54:58 51°11.12 2°41.844 250.3 4.8 251 12.2
2007-03-12 08:55:03 51°11.118 2°41.834 249 5.2 250 12.1
2007-03-12 08:55:08 51°11.115 2°41.821 248.8 5.9 250 12.2
2007-03-12 08:55:14 51°11.111 2°41.805 249.4 6.6 250 12.1
2007-03-12 08:55:18 51°11.108 2°41.793 249.9 7.2 249 12.1
2007-03-12 08:55:23 51°11.104 2°41.778 249.3 7.7 248 12.1
2007-03-12 08:55:28 51°11.1 2°41.761 248.5 8.3 247 12.1
2007-03-12 08:55:33 51°11.095 2°41.743 248 9 246 12.1
2007-03-12 08:55:38 51°11.089 2°41.724 247.4 9.5 246 12.1
2007-03-12 08:55:43 51°11.084 2°41.704 247.1 9.9 246 12.1
2007-03-12 08:55:48 51°11.078 2°41.683 247.1 10.3 246 12.1
2007-03-12 08:55:53 51°11.072 2°41.662 247.1 10.8 246 12.1
2007-03-12 08:55:59 51°11.064 2°41.635 247.1 11.2 246 12.1
2007-03-12 08:56:03 51°11.059 2°41.617 247.1 11.5 245 12
2007-03-12 08:56:08 51°11.052 2°41.593 246.9 11.7 245 12.1
2007-03-12 08:56:13 51°11.045 2°41.569 246.9 12.1 245 12.1
2007-03-12 08:56:18 51°11.038 2°41.545 246.9 12.3 245 12.1
2007-03-12 08:56:23 51°11.031 2°41.519 246.9 12.6 245 12.1
2007-03-12 08:56:28 51°11.023 2°41.493 246.9 12.9 245 12.1
2007-03-12 08:56:34 51°11.014 2°41.462 246.9 13.2 245 12.1
2007-03-12 08:56:38 51°11.008 2°41.441 246.9 13.4 245 12.1
2007-03-12 08:56:43 51°11 2°41.414 247.2 13.5 245 12.1
2007-03-12 08:56:48 51°10.992 2°41.386 247.1 13.5 245 12.1
2007-03-12 08:56:54 51°10.983 2°41.354 247 13.6 245 12.1
2007-03-12 08:56:58 51°10.976 2°41.332 247.4 13.6 245 12.2
2007-03-12 08:57:03 51°10.969 2°41.304 247.4 13.6 246 12.2
2007-03-12 08:57:08 51°10.961 2°41.277 248.1 13.7 247 12.2
2007-03-12 08:57:14 51°10.953 2°41.243 249.5 13.8 247 12.3
2007-03-12 08:57:18 51°10.947 2°41.221 249.9 13.8 248 12.3
2007-03-12 08:57:23 51°10.94 2°41.192 251.3 13.8 250 12.3
2007-03-12 08:57:28 51°10.934 2°41.163 252.5 13.8 251 12.3
2007-03-12 08:57:33 51°10.928 2°41.135 253.4 13.8 252 12.4
2007-03-12 08:57:38 51°10.922 2°41.106 254.4 13.8 253 12.4
2007-03-12 08:57:43 51°10.917 2°41.077 255.2 13.8 253 12.4
2007-03-12 08:57:48 51°10.912 2°41.047 256.2 13.8 255 12.4
2007-03-12 08:57:54 51°10.905 2°41.012 256.9 13.8 254 12.4
2007-03-12 08:57:58 51°10.902 2°40.989 257.4 13.8 256 12.5
2007-03-12 08:58:03 51°10.897 2°40.959 258 13.8 255 12.5
2007-03-12 08:58:08 51°10.892 2°40.93 258.1 13.8 256 12.6
2007-03-12 08:58:13 51°10.887 2°40.9 258.4 13.8 256 12.6
2007-03-12 08:58:18 51°10.883 2°40.871 258.7 13.8 256 12.7
2007-03-12 08:58:23 51°10.878 2°40.841 258.7 13.8 256 12.7
2007-03-12 08:58:28 51°10.873 2°40.812 258.5 13.8 256 12.8
2007-03-12 08:58:33 51°10.868 2°40.782 258.3 13.8 255 12.8
2007-03-12 08:58:38 51°10.863 2°40.753 258.3 13.8 256 12.8
2007-03-12 08:58:43 51°10.858 2°40.723 258.3 13.8 255 12.8
2007-03-12 08:58:48 51°10.854 2°40.694 258.3 13.8 256 12.9
2007-03-12 08:58:53 51°10.849 2°40.664 258.3 13.8 255 13
2007-03-12 08:58:58 51°10.844 2°40.635 258.3 13.8 255 13
2007-03-12 08:59:03 51°10.839 2°40.605 258.3 13.8 255 13.1
2007-03-12 08:59:08 51°10.834 2°40.576 258.3 13.8 255 13.1
2007-03-12 08:59:13 51°10.829 2°40.547 258.3 13.8 255 13.1
2007-03-12 08:59:18 51°10.824 2°40.517 258.3 13.8 255 13.2
2007-03-12 08:59:23 51°10.819 2°40.488 258.3 13.8 256 13.2
2007-03-12 08:59:28 51°10.815 2°40.458 258.4 13.8 255 13.3
2007-03-12 08:59:34 51°10.809 2°40.422 258.5 13.8 256 13.3
2007-03-12 08:59:38 51°10.805 2°40.399 258.8 13.8 256 13.4
2007-03-12 08:59:43 51°10.8 2°40.369 258.8 13.8 256 13.4
2007-03-12 08:59:48 51°10.795 2°40.34 258.5 13.8 255 13.4
2007-03-12 08:59:54 51°10.789 2°40.304 258.3 13.8 255 13.5
2007-03-12 08:59:58 51°10.785 2°40.281 258 13.8 255 13.5
2007-03-12 09:00:03 51°10.781 2°40.251 257.9 13.8 256 13.5
2007-03-12 09:00:08 51°10.776 2°40.222 258.3 13.8 256 13.6
2007-03-12 09:00:13 51°10.771 2°40.192 258.7 13.8 256 13.7
2007-03-12 09:00:18 51°10.766 2°40.163 258.6 13.8 256 13.7
2007-03-12 09:00:23 51°10.761 2°40.133 258.5 13.8 256 13.8
2007-03-12 09:00:28 51°10.757 2°40.104 258.5 13.8 256 13.8
2007-03-12 09:00:33 51°10.752 2°40.074 258.7 13.8 255 13.8
2007-03-12 09:00:38 51°10.747 2°40.045 258.7 13.8 256 13.9
2007-03-12 09:00:43 51°10.743 2°40.015 258.7 13.8 256 13.9
2007-03-12 09:00:48 51°10.738 2°39.985 258.8 13.8 256 13.9
2007-03-12 09:00:54 51°10.732 2°39.95 258.8 13.8 256 14
2007-03-12 09:00:58 51°10.729 2°39.926 258.6 13.9 256 14.1
2007-03-12 09:01:03 51°10.724 2°39.897 258.3 13.8 256 14.2
2007-03-12 09:01:08 51°10.719 2°39.867 258.1 13.8 255 14.3
2007-03-12 09:01:14 51°10.713 2°39.832 258 13.8 256 14.3
2007-03-12 09:01:18 51°10.709 2°39.808 258.2 13.8 256 14.3
2007-03-12 09:01:23 51°10.705 2°39.779 258.3 13.8 256 14.4
2007-03-12 09:01:28 51°10.7 2°39.749 258.4 13.8 256 14.4
2007-03-12 09:01:34 51°10.694 2°39.714 258.8 13.8 256 14.4
2007-03-12 09:01:38 51°10.691 2°39.69 258.8 13.8 256 14.4
2007-03-12 09:01:43 51°10.686 2°39.66 258.7 13.8 256 14.4
2007-03-12 09:01:48 51°10.681 2°39.631 258.6 13.8 256 14.5
2007-03-12 09:01:54 51°10.676 2°39.596 258.3 13.8 256 14.5
2007-03-12 09:01:58 51°10.672 2°39.572 258.5 13.8 256 14.6
2007-03-12 09:02:03 51°10.667 2°39.542 258.7 13.8 256 14.6
2007-03-12 09:02:08 51°10.662 2°39.513 258.6 13.8 255 14.7
2007-03-12 09:02:13 51°10.658 2°39.483 258.3 13.8 255 14.8
2007-03-12 09:02:18 51°10.653 2°39.454 258 13.8 255 14.8
2007-03-12 09:02:23 51°10.648 2°39.425 258 13.8 256 14.9
2007-03-12 09:02:28 51°10.643 2°39.395 258 13.8 256 14.9
2007-03-12 09:02:34 51°10.638 2°39.36 258.2 13.8 256 15
2007-03-12 09:02:38 51°10.634 2°39.336 258.4 13.8 256 15.1
2007-03-12 09:02:43 51°10.629 2°39.306 258.6 13.8 256 15.1
2007-03-12 09:02:48 51°10.625 2°39.277 258.7 13.8 256 15.3
2007-03-12 09:02:53 51°10.62 2°39.247 258.7 13.8 256 15.5
2007-03-12 09:02:58 51°10.615 2°39.218 258.6 13.8 256 15.4
2007-03-12 09:03:03 51°10.611 2°39.188 258.4 13.8 256 15.5
2007-03-12 09:03:08 51°10.606 2°39.159 258.4 13.8 255 15.6
2007-03-12 09:03:13 51°10.601 2°39.129 258.3 13.9 256 15.7
2007-03-12 09:03:18 51°10.596 2°39.099 258.1 13.8 255 15.8
2007-03-12 09:03:23 51°10.591 2°39.07 258 13.8 255 15.8
2007-03-12 09:03:28 51°10.587 2°39.04 257.8 13.9 255 15.9
2007-03-12 09:03:33 51°10.582 2°39.011 257.8 13.9 255 16
2007-03-12 09:03:38 51°10.577 2°38.981 257.8 13.9 255 16
2007-03-12 09:03:43 51°10.572 2°38.951 257.8 13.8 255 16
2007-03-12 09:03:48 51°10.567 2°38.922 258 13.8 256 16.2
2007-03-12 09:03:54 51°10.562 2°38.886 258.2 13.8 256 16.2
2007-03-12 09:03:58 51°10.558 2°38.863 258.7 13.8 257 16.3
2007-03-12 09:04:03 51°10.554 2°38.833 259.3 13.8 257 16.4
2007-03-12 09:04:08 51°10.55 2°38.803 259.7 13.8 258 16.4
2007-03-12 09:04:14 51°10.545 2°38.767 260.2 13.8 258 16.5
2007-03-12 09:04:18 51°10.542 2°38.743 260.4 13.8 258 16.5
2007-03-12 09:04:23 51°10.538 2°38.714 260.5 13.8 258 16.6
2007-03-12 09:04:28 51°10.534 2°38.684 260.5 13.8 258 16.8
2007-03-12 09:04:33 51°10.53 2°38.654 260.7 13.9 259 16.9
2007-03-12 09:04:38 51°10.527 2°38.624 261.6 13.8 259 17
2007-03-12 09:04:43 51°10.523 2°38.594 262 13.8 260 17
2007-03-12 09:04:48 51°10.52 2°38.564 262.5 13.9 260 17
2007-03-12 09:04:54 51°10.516 2°38.528 262.5 13.9 260 17.1
2007-03-12 09:04:58 51°10.513 2°38.504 262.7 13.8 260 17.2
2007-03-12 09:05:03 51°10.51 2°38.473 262.7 13.9 260 17.2
2007-03-12 09:05:08 51°10.506 2°38.443 262.6 13.9 260 17.3
2007-03-12 09:05:13 51°10.503 2°38.413 262.5 13.9 260 17.4
2007-03-12 09:05:18 51°10.5 2°38.383 262.4 13.9 260 17.4
2007-03-12 09:05:23 51°10.496 2°38.353 262.3 13.9 259 17.6
2007-03-12 09:05:28 51°10.493 2°38.323 262.3 13.9 260 17.6
2007-03-12 09:05:33 51°10.489 2°38.293 262.3 13.9 260 17.7
2007-03-12 09:05:38 51°10.486 2°38.262 262.5 13.9 260 17.7
2007-03-12 09:05:43 51°10.483 2°38.232 262.7 13.9 260 17.7
2007-03-12 09:05:48 51°10.479 2°38.202 262.7 13.9 260 17.7
2007-03-12 09:05:53 51°10.476 2°38.172 262.7 13.9 260 17.7
2007-03-12 09:05:58 51°10.473 2°38.142 262.6 13.9 260 17.7
2007-03-12 09:06:03 51°10.469 2°38.112 262.4 13.9 260 17.7
2007-03-12 09:06:08 51°10.466 2°38.081 262.4 13.9 260 17.7
2007-03-12 09:06:13 51°10.462 2°38.051 262.3 13.9 260 17.7
2007-03-12 09:06:18 51°10.459 2°38.021 262.3 13.9 259 17.8
2007-03-12 09:06:23 51°10.455 2°37.991 262.1 13.9 259 17.7
2007-03-12 09:06:28 51°10.452 2°37.96 262 13.9 259 17.8
2007-03-12 09:06:34 51°10.447 2°37.924 262 14 259 17.8
2007-03-12 09:06:38 51°10.444 2°37.9 261.9 14 259 17.8
2007-03-12 09:06:43 51°10.441 2°37.869 262.1 14 260 17.8
2007-03-12 09:06:48 51°10.437 2°37.839 262.3 14 259 17.7
2007-03-12 09:06:53 51°10.434 2°37.809 262.3 14 260 17.7
2007-03-12 09:06:58 51°10.43 2°37.779 262.3 13.9 259 17.8
2007-03-12 09:07:03 51°10.426 2°37.749 262.3 13.9 260 17.7
2007-03-12 09:07:08 51°10.423 2°37.718 262.2 13.9 259 17.7
2007-03-12 09:07:13 51°10.42 2°37.688 262.8 14 261 17.6
2007-03-12 09:07:18 51°10.417 2°37.658 263.4 13.9 261 17.6
2007-03-12 09:07:23 51°10.414 2°37.627 263.8 13.9 261 17.5
2007-03-12 09:07:28 51°10.411 2°37.597 264.1 13.9 261 17.5
2007-03-12 09:07:33 51°10.408 2°37.567 264.1 13.9 262 17.4
2007-03-12 09:07:38 51°10.406 2°37.536 264.1 13.9 262 17.4
2007-03-12 09:07:43 51°10.403 2°37.506 265.1 13.9 264 17.1
2007-03-12 09:07:48 51°10.402 2°37.475 266.6 13.9 265 17
2007-03-12 09:07:54 51°10.4 2°37.439 267.9 13.9 266 17
2007-03-12 09:07:58 51°10.399 2°37.414 268.8 13.9 266 17.3
2007-03-12 09:08:03 51°10.398 2°37.383 269.6 13.9 267 17.2
2007-03-12 09:08:08 51°10.397 2°37.353 270 13.9 268 17.1
2007-03-12 09:08:14 51°10.396 2°37.316 270.4 13.9 268 17
2007-03-12 09:08:18 51°10.395 2°37.291 270.8 13.9 268 16.8
2007-03-12 09:08:23 51°10.395 2°37.261 271.1 13.9 268 16.6
2007-03-12 09:08:28 51°10.394 2°37.23 271.1 13.9 268 16.7
2007-03-12 09:08:34 51°10.393 2°37.193 271.1 13.9 268 16.1
2007-03-12 09:08:38 51°10.393 2°37.169 271.2 13.9 268 16.2
2007-03-12 09:08:43 51°10.392 2°37.138 271.2 13.9 269 16
2007-03-12 09:08:48 51°10.392 2°37.108 271.3 13.9 269 16.1
2007-03-12 09:08:53 51°10.393 2°37.077 273.4 13.9 273 15.9
2007-03-12 09:08:58 51°10.395 2°37.047 276.2 13.8 276 15.4
2007-03-12 09:09:03 51°10.398 2°37.017 280.2 13.8 280 15.4
2007-03-12 09:09:08 51°10.402 2°36.987 283.2 13.8 281 14.3
2007-03-12 09:09:13 51°10.408 2°36.958 288.2 13.7 289 14.3
2007-03-12 09:09:18 51°10.415 2°36.93 292.5 13.6 291 13.1
2007-03-12 09:09:23 51°10.423 2°36.903 296.4 13.6 295 12.4
2007-03-12 09:09:28 51°10.432 2°36.876 301.2 13.6 300 11.9
2007-03-12 09:09:34 51°10.444 2°36.846 304.8 13.6 302 11
2007-03-12 09:09:38 51°10.452 2°36.826 307.4 13.5 304 10.6
2007-03-12 09:09:43 51°10.463 2°36.802 309.6 13.5 306 9.5
2007-03-12 09:09:48 51°10.474 2°36.778 311.3 13.4 307 9.2
2007-03-12 09:09:54 51°10.488 2°36.751 312.5 13.3 308 9
2007-03-12 09:09:58 51°10.497 2°36.732 313.3 13.2 308 8.4
2007-03-12 09:10:03 51°10.509 2°36.71 313.7 13.1 310 8.4
2007-03-12 09:10:08 51°10.521 2°36.688 314.9 13.1 314 8.4
2007-03-12 09:10:14 51°10.538 2°36.666 319.5 13.2 319 8.6
2007-03-12 09:10:18 51°10.549 2°36.651 324.2 13.3 321 8.6